Time;durP1;ratioP1;P1;durP2;ratioP2;P2;SDS_P1;SDS_P2;PMS_P1;PMS_P2;Temp;Humidity;BMP_temperature;BMP_pressure;BME280_temperature;BME280_humidity;BME280_pressure;Samples;Min_cycle;Max_cycle;Signal;HPM_P1;HPM_P2
2022/08/29 00:01:59;;;;;;;2.80;1.83;;;17.20;58.40;;;;;;5023420;28;20575;-70
2022/08/29 00:04:26;;;;;;;3.15;2.20;;;17.20;58.30;;;;;;5025561;28;20442;-70
2022/08/29 00:06:53;;;;;;;3.58;1.90;;;17.10;58.60;;;;;;5025438;28;20458;-69
2022/08/29 00:09:20;;;;;;;3.08;2.20;;;17.10;58.70;;;;;;5019661;28;20451;-70
2022/08/29 00:11:46;;;;;;;3.95;1.92;;;17.10;58.40;;;;;;5026458;28;20431;-70
2022/08/29 00:14:13;;;;;;;2.38;1.70;;;17.10;58.10;;;;;;5026194;28;20430;-70
2022/08/29 00:16:41;;;;;;;4.68;2.30;;;17.00;58.50;;;;;;5025265;28;20522;-70
2022/08/29 00:19:09;;;;;;;3.72;2.20;;;17.00;58.80;;;;;;5026277;28;20496;-70
2022/08/29 00:21:36;;;;;;;3.70;2.10;;;17.00;59.30;;;;;;5026262;28;20423;-70
2022/08/29 00:24:03;;;;;;;2.30;1.77;;;17.00;59.20;;;;;;5026832;28;20565;-70
2022/08/29 00:26:30;;;;;;;3.28;1.90;;;16.90;59.20;;;;;;5023114;28;20519;-70
2022/08/29 00:28:57;;;;;;;3.50;1.80;;;16.90;58.90;;;;;;5026618;28;20765;-70
2022/08/29 00:31:24;;;;;;;3.60;2.30;;;16.90;59.30;;;;;;5021979;28;20439;-70
2022/08/29 00:33:50;;;;;;;2.80;2.10;;;16.80;59.50;;;;;;5022252;28;20502;-70
2022/08/29 00:36:19;;;;;;;3.33;1.95;;;16.80;59.80;;;;;;5025515;28;20518;-70
2022/08/29 00:38:46;;;;;;;3.58;2.30;;;16.70;60.40;;;;;;5026118;28;20442;-70
2022/08/29 00:41:13;;;;;;;3.42;2.00;;;16.60;59.90;;;;;;5026497;28;20419;-70
2022/08/29 00:43:39;;;;;;;3.40;2.15;;;16.70;60.30;;;;;;5026991;28;20423;-70
2022/08/29 00:46:24;;;;;;;3.25;1.90;;;16.60;59.80;;;;;;5024512;28;20552;-70
2022/08/29 00:48:55;;;;;;;5.00;2.20;;;16.60;60.30;;;;;;5025972;28;20427;-70
2022/08/29 00:51:24;;;;;;;5.38;2.22;;;16.50;60.10;;;;;;5026007;28;20939;-69
2022/08/29 00:53:54;;;;;;;4.03;1.88;;;16.60;60.50;;;;;;5020799;28;20420;-70
2022/08/29 00:56:21;;;;;;;4.10;2.60;;;16.50;59.90;;;;;;5025818;28;21089;-70
2022/08/29 00:58:52;;;;;;;2.90;1.77;;;16.50;59.90;;;;;;5025159;28;20471;-70
2022/08/29 01:01:19;;;;;;;3.30;1.95;;;16.50;60.00;;;;;;5026969;28;20435;-70
2022/08/29 01:03:47;;;;;;;2.88;1.70;;;16.50;60.20;;;;;;5018547;28;20427;-69
2022/08/29 01:06:14;;;;;;;3.70;2.05;;;16.40;60.30;;;;;;5025656;28;20427;-70
2022/08/29 01:08:43;;;;;;;4.20;2.00;;;16.40;60.60;;;;;;5025168;28;20483;-70
2022/08/29 01:13:57;;;;;;;3.78;2.20;;;16.40;60.30;;;;;;5023371;28;20425;-69
2022/08/29 01:16:26;;;;;;;2.90;1.98;;;16.30;60.20;;;;;;5027093;28;20457;-70
2022/08/29 01:18:57;;;;;;;3.80;2.00;;;16.30;60.60;;;;;;5020450;28;20500;-70
2022/08/29 01:21:34;;;;;;;3.40;2.30;;;16.20;60.40;;;;;;5028042;28;20431;-70
2022/08/29 01:24:09;;;;;;;4.00;2.10;;;16.20;60.80;;;;;;5027803;28;20434;-70
2022/08/29 01:26:37;;;;;;;3.05;1.88;;;16.20;60.80;;;;;;5026148;28;20967;-70
2022/08/29 01:29:04;;;;;;;3.17;2.20;;;16.20;60.90;;;;;;5025789;28;20470;-70
2022/08/29 01:31:38;;;;;;;4.40;2.10;;;16.20;60.50;;;;;;5023349;28;20461;-69
2022/08/29 01:34:06;;;;;;;5.78;2.45;;;16.20;60.90;;;;;;5023413;28;20439;-70
2022/08/29 01:36:36;;;;;;;5.80;2.30;;;16.20;61.10;;;;;;5014836;28;20453;-70
2022/08/29 01:39:03;;;;;;;3.75;2.20;;;16.20;61.00;;;;;;5023245;28;20513;-70
2022/08/29 01:41:31;;;;;;;6.03;2.70;;;16.20;61.80;;;;;;5024668;28;20425;-70
2022/08/29 01:44:00;;;;;;;4.00;2.65;;;16.10;60.90;;;;;;5025174;28;20510;-70
2022/08/29 01:46:31;;;;;;;3.65;2.30;;;16.10;61.40;;;;;;5023510;28;20430;-69
2022/08/29 01:49:00;;;;;;;4.18;2.17;;;16.10;61.10;;;;;;5025136;28;20879;-70
2022/08/29 01:51:26;;;;;;;4.00;2.10;;;16.10;61.60;;;;;;5026088;28;20438;-70
2022/08/29 01:53:54;;;;;;;4.07;2.28;;;16.10;61.20;;;;;;5024952;28;20870;-69
2022/08/29 01:56:23;;;;;;;3.70;2.60;;;16.10;61.10;;;;;;5024182;28;20903;-70
2022/08/29 01:58:52;;;;;;;4.97;2.10;;;16.00;61.30;;;;;;5023729;28;20583;-70
2022/08/29 02:01:23;;;;;;;3.33;2.38;;;16.00;61.30;;;;;;5024989;28;20499;-70
2022/08/29 02:03:50;;;;;;;5.65;2.38;;;16.00;61.10;;;;;;5024062;28;20522;-70
2022/08/29 02:06:17;;;;;;;3.20;2.00;;;16.00;61.40;;;;;;5023268;28;20430;-70
2022/08/29 02:08:45;;;;;;;4.88;2.50;;;16.00;61.60;;;;;;5024610;28;20425;-70
2022/08/29 02:11:14;;;;;;;5.00;2.40;;;16.00;61.80;;;;;;5021178;28;20514;-70
2022/08/29 02:13:44;;;;;;;3.65;2.60;;;16.00;61.60;;;;;;5027253;28;20434;-70
2022/08/29 02:16:11;;;;;;;4.38;2.50;;;16.00;61.70;;;;;;5013413;28;20428;-70
2022/08/29 02:18:41;;;;;;;3.08;2.20;;;16.00;62.10;;;;;;5023447;28;20435;-70
2022/08/29 02:21:08;;;;;;;3.42;2.30;;;16.00;62.40;;;;;;5024169;28;20434;-70
2022/08/29 02:23:37;;;;;;;3.72;2.50;;;15.90;62.10;;;;;;5019756;28;20428;-70
2022/08/29 02:26:04;;;;;;;3.08;2.17;;;15.90;62.50;;;;;;5023715;28;20452;-70
2022/08/29 02:28:31;;;;;;;2.80;2.20;;;15.90;62.40;;;;;;5023522;28;20921;-70
2022/08/29 02:30:59;;;;;;;4.43;2.67;;;15.90;62.50;;;;;;5023630;28;20431;-70
2022/08/29 02:33:26;;;;;;;4.22;2.50;;;15.90;62.80;;;;;;5023719;28;20741;-70
2022/08/29 02:35:55;;;;;;;3.45;2.75;;;15.80;62.80;;;;;;5022833;28;20498;-70
2022/08/29 02:38:22;;;;;;;4.80;2.47;;;15.90;63.00;;;;;;5019636;28;20484;-70
2022/08/29 02:40:51;;;;;;;5.20;2.50;;;15.90;62.90;;;;;;5018120;28;20455;-70
2022/08/29 02:43:19;;;;;;;4.60;2.50;;;15.80;63.00;;;;;;5023392;28;20750;-70
2022/08/29 02:45:47;;;;;;;5.13;2.60;;;15.80;63.20;;;;;;5022804;28;20441;-70
2022/08/29 02:48:14;;;;;;;2.70;2.20;;;15.80;63.20;;;;;;5023814;28;20429;-70
2022/08/29 02:50:44;;;;;;;2.70;2.20;;;15.80;63.40;;;;;;5022602;28;20437;-70
2022/08/29 02:53:13;;;;;;;3.90;2.20;;;15.70;63.80;;;;;;5016439;28;20437;-70
2022/08/29 02:55:40;;;;;;;3.00;2.50;;;15.60;63.90;;;;;;5023342;28;20429;-70
2022/08/29 02:58:07;;;;;;;4.10;2.40;;;15.60;64.70;;;;;;5023223;28;20430;-70
2022/08/29 03:00:35;;;;;;;3.35;2.45;;;15.60;64.60;;;;;;5022286;28;20876;-69
2022/08/29 03:03:03;;;;;;;3.10;2.65;;;15.60;64.70;;;;;;5023855;28;20450;-70
2022/08/29 03:05:33;;;;;;;4.55;2.38;;;15.50;64.80;;;;;;5023574;28;20475;-70
2022/08/29 03:08:03;;;;;;;3.65;2.42;;;15.50;65.10;;;;;;5049734;22;20954;-74
2022/08/29 03:10:32;;;;;;;2.60;2.22;;;15.60;65.30;;;;;;5040143;28;20948;-72
2022/08/29 03:12:59;;;;;;;5.70;2.70;;;15.50;65.00;;;;;;5044423;28;20455;-71
2022/08/29 03:15:26;;;;;;;4.00;2.53;;;15.50;65.80;;;;;;5036908;28;20433;-71
2022/08/29 03:17:54;;;;;;;3.53;2.30;;;15.50;65.60;;;;;;5036024;28;20431;-71
2022/08/29 03:20:22;;;;;;;3.90;2.40;;;15.40;65.70;;;;;;5046745;28;20470;-72
2022/08/29 03:22:50;;;;;;;5.55;2.65;;;15.40;66.10;;;;;;5047509;28;20436;-72
2022/08/29 03:25:17;;;;;;;5.00;2.60;;;15.40;66.40;;;;;;5040048;28;20421;-71
2022/08/29 03:27:45;;;;;;;3.03;2.40;;;15.40;66.30;;;;;;5047308;28;20424;-73
2022/08/29 03:30:15;;;;;;;3.63;2.40;;;15.40;66.50;;;;;;5043789;28;20429;-71
2022/08/29 03:32:42;;;;;;;3.78;2.70;;;15.40;66.70;;;;;;5035352;28;20431;-71
2022/08/29 03:35:10;;;;;;;4.45;2.70;;;15.40;66.70;;;;;;5051230;28;20417;-72
2022/08/29 03:37:39;;;;;;;3.65;2.60;;;15.40;67.20;;;;;;5051261;28;20417;-72
2022/08/29 03:40:08;;;;;;;5.07;2.60;;;15.40;67.20;;;;;;5051587;28;20996;-72
2022/08/29 03:42:35;;;;;;;5.53;2.80;;;15.30;66.90;;;;;;5051472;28;20439;-71
2022/08/29 03:45:04;;;;;;;3.70;2.60;;;15.30;67.30;;;;;;5048683;28;20424;-73
2022/08/29 03:47:31;;;;;;;4.43;2.70;;;15.30;67.30;;;;;;5050457;28;20429;-73
2022/08/29 03:49:58;;;;;;;4.35;2.60;;;15.30;67.30;;;;;;5051363;28;20504;-72
2022/08/29 03:52:25;;;;;;;4.88;2.80;;;15.30;67.10;;;;;;5055821;28;20437;-72
2022/08/29 03:54:52;;;;;;;4.70;2.60;;;15.30;68.30;;;;;;5058436;28;20435;-73
2022/08/29 03:57:19;;;;;;;2.88;2.42;;;15.30;67.80;;;;;;5065701;28;20929;-71
2022/08/29 03:59:47;;;;;;;3.90;2.80;;;15.30;68.30;;;;;;5061620;28;20524;-71
2022/08/29 04:02:17;;;;;;;4.33;2.57;;;15.20;68.50;;;;;;5048981;28;20425;-72
2022/08/29 04:07:28;;;;;;;4.10;2.80;;;15.20;69.20;;;;;;5050742;28;20488;-71
2022/08/29 04:09:55;;;;;;;4.10;2.75;;;15.20;69.20;;;;;;5051963;28;20410;-72
2022/08/29 04:12:22;;;;;;;3.55;2.90;;;15.20;69.40;;;;;;5049997;28;20525;-72
2022/08/29 04:14:49;;;;;;;5.28;3.30;;;15.10;69.60;;;;;;5049350;28;20439;-72
2022/08/29 04:17:17;;;;;;;4.05;2.70;;;15.10;69.90;;;;;;5047410;28;20429;-72
2022/08/29 04:19:43;;;;;;;3.92;2.70;;;15.10;70.10;;;;;;5046679;28;20417;-73
2022/08/29 04:22:12;;;;;;;5.55;3.40;;;15.10;70.80;;;;;;5050333;28;20504;-72
2022/08/29 04:24:39;;;;;;;4.38;3.05;;;15.10;70.90;;;;;;5046301;28;20424;-71
2022/08/29 04:27:06;;;;;;;5.25;3.13;;;15.10;71.10;;;;;;5049635;28;20431;-71
2022/08/29 04:29:36;;;;;;;5.97;3.15;;;15.00;71.10;;;;;;5049701;28;20453;-71
2022/08/29 04:32:04;;;;;;;6.70;3.28;;;15.00;72.30;;;;;;5045281;28;20429;-71
2022/08/29 04:34:33;;;;;;;4.83;3.10;;;15.00;71.20;;;;;;5047954;28;20494;-71
2022/08/29 04:37:00;;;;;;;7.13;3.20;;;15.00;71.70;;;;;;5042936;28;20443;-72
2022/08/29 04:39:26;;;;;;;4.53;3.30;;;15.00;72.00;;;;;;5048090;28;20445;-72
2022/08/29 04:41:53;;;;;;;5.88;3.33;;;15.00;71.80;;;;;;5048002;28;20429;-72
2022/08/29 04:44:20;;;;;;;5.75;3.25;;;15.00;71.70;;;;;;5045131;28;20519;-72
2022/08/29 04:46:47;;;;;;;4.97;3.50;;;15.00;71.40;;;;;;5047068;28;20435;-72
2022/08/29 04:49:14;;;;;;;5.40;3.50;;;15.00;71.10;;;;;;5047216;28;20810;-72
2022/08/29 04:51:42;;;;;;;5.93;3.00;;;15.00;71.20;;;;;;5048267;28;20425;-72
2022/08/29 04:54:09;;;;;;;5.25;3.35;;;15.00;71.50;;;;;;5046935;28;20612;-73
2022/08/29 04:56:37;;;;;;;6.88;3.55;;;15.00;71.10;;;;;;5045811;28;20562;-72
2022/08/29 04:59:04;;;;;;;5.35;3.65;;;15.00;70.80;;;;;;5047383;28;20440;-72
2022/08/29 05:01:31;;;;;;;5.00;3.30;;;14.90;71.00;;;;;;5051306;28;20493;-72
2022/08/29 05:03:58;;;;;;;5.10;3.67;;;14.90;71.00;;;;;;5038467;28;20437;-72
2022/08/29 05:06:25;;;;;;;6.40;3.10;;;14.90;71.40;;;;;;5047839;28;20539;-73
2022/08/29 05:08:53;;;;;;;5.00;3.07;;;15.00;71.20;;;;;;5046885;28;20523;-72
2022/08/29 05:11:21;;;;;;;5.28;3.30;;;15.00;70.90;;;;;;5049769;28;20509;-71
2022/08/29 05:13:48;;;;;;;5.10;3.20;;;15.00;71.00;;;;;;5046671;28;20516;-72
2022/08/29 05:16:17;;;;;;;5.32;3.30;;;15.00;71.10;;;;;;5048942;28;20439;-71
2022/08/29 05:18:45;;;;;;;5.82;3.08;;;15.00;71.20;;;;;;5049836;28;20421;-71
2022/08/29 05:21:14;;;;;;;4.97;3.30;;;15.00;71.20;;;;;;5046099;28;20436;-71
2022/08/29 05:23:41;;;;;;;4.93;3.28;;;15.00;71.10;;;;;;5047527;28;20769;-72
2022/08/29 05:26:09;;;;;;;5.22;3.50;;;15.10;71.20;;;;;;5044936;28;20437;-72
2022/08/29 05:28:36;;;;;;;6.32;3.60;;;15.10;71.00;;;;;;5042859;28;20518;-71
2022/08/29 05:31:03;;;;;;;6.23;3.60;;;15.10;71.10;;;;;;5047555;28;20436;-72
2022/08/29 05:33:30;;;;;;;6.13;3.13;;;15.20;70.80;;;;;;5042345;28;20950;-71
2022/08/29 05:35:57;;;;;;;4.95;3.22;;;15.20;71.00;;;;;;5047729;28;20903;-71
2022/08/29 05:38:24;;;;;;;5.32;3.10;;;15.20;70.80;;;;;;5042910;28;20417;-72
2022/08/29 05:40:51;;;;;;;5.57;3.30;;;15.20;71.00;;;;;;5048293;28;20435;-71
2022/08/29 05:43:19;;;;;;;5.80;3.70;;;15.20;71.00;;;;;;5032884;28;20407;-72
2022/08/29 05:45:46;;;;;;;6.15;3.63;;;15.30;70.90;;;;;;5041415;28;20435;-72
2022/08/29 05:48:16;;;;;;;5.10;3.40;;;15.30;69.80;;;;;;5035630;28;20516;-72
2022/08/29 05:50:44;;;;;;;7.45;3.72;;;15.30;70.10;;;;;;5041161;28;20963;-72
2022/08/29 05:53:15;;;;;;;7.15;4.20;;;15.30;70.50;;;;;;5048825;28;20429;-71
2022/08/29 05:55:43;;;;;;;6.38;3.20;;;15.40;70.80;;;;;;5047964;28;20515;-73
2022/08/29 05:58:10;;;;;;;5.53;3.55;;;15.40;70.60;;;;;;5041160;28;20910;-72
2022/08/29 06:00:40;;;;;;;4.75;3.35;;;15.50;70.70;;;;;;5046542;28;20433;-72
2022/08/29 06:03:07;;;;;;;5.35;3.80;;;15.50;70.50;;;;;;5039821;28;20417;-72
2022/08/29 06:05:34;;;;;;;7.90;3.83;;;15.60;70.30;;;;;;5045442;28;20424;-72
2022/08/29 06:08:01;;;;;;;6.47;3.60;;;15.70;69.80;;;;;;5065080;28;20466;-73
2022/08/29 06:10:28;;;;;;;5.80;3.90;;;15.70;69.90;;;;;;5073485;28;20490;-74
2022/08/29 06:12:55;;;;;;;6.25;4.05;;;15.80;69.70;;;;;;5072840;28;20419;-73
2022/08/29 06:15:22;;;;;;;5.15;3.30;;;15.90;69.90;;;;;;5067540;28;20472;-73
2022/08/29 06:17:50;;;;;;;5.80;4.00;;;16.00;69.60;;;;;;5071864;28;20473;-72
2022/08/29 06:20:17;;;;;;;6.80;3.67;;;16.10;69.50;;;;;;5072409;28;20445;-72
2022/08/29 06:22:44;;;;;;;4.97;3.55;;;16.20;69.10;;;;;;5061836;28;20494;-70
2022/08/29 06:25:11;;;;;;;6.10;3.80;;;16.20;68.50;;;;;;5052238;28;20427;-72
2022/08/29 06:27:37;;;;;;;7.47;4.60;;;16.40;68.70;;;;;;5040150;28;20472;-72
2022/08/29 06:30:06;;;;;;;5.60;3.65;;;16.40;68.20;;;;;;5047191;28;20433;-72
2022/08/29 06:32:33;;;;;;;10.10;4.30;;;16.50;67.60;;;;;;5047769;28;20437;-72
2022/08/29 06:35:01;;;;;;;10.73;4.60;;;16.60;67.30;;;;;;5049025;28;20437;-72
2022/08/29 06:37:28;;;;;;;8.30;4.03;;;16.70;67.50;;;;;;5048373;28;20448;-72
2022/08/29 06:39:54;;;;;;;7.28;4.10;;;16.70;67.40;;;;;;5045375;28;20433;-72
2022/08/29 06:42:23;;;;;;;6.75;4.50;;;16.80;67.30;;;;;;5047332;28;20428;-72
2022/08/29 06:44:51;;;;;;;6.07;4.30;;;16.80;67.50;;;;;;5045471;28;20931;-71
2022/08/29 06:47:18;;;;;;;6.60;4.20;;;16.80;66.60;;;;;;5051111;28;20484;-72
2022/08/29 06:49:44;;;;;;;7.70;4.57;;;16.80;65.90;;;;;;5048914;28;20440;-71
2022/08/29 06:52:13;;;;;;;8.38;4.10;;;16.80;66.50;;;;;;5049322;28;20503;-71
2022/08/29 06:54:40;;;;;;;6.32;3.60;;;16.80;66.50;;;;;;5035035;28;20417;-70
2022/08/29 06:57:07;;;;;;;8.38;4.20;;;16.80;66.10;;;;;;5046473;28;20435;-73
2022/08/29 06:59:33;;;;;;;6.68;3.20;;;16.90;66.10;;;;;;5042749;28;20433;-72
2022/08/29 07:02:00;;;;;;;6.38;3.60;;;17.00;64.80;;;;;;5056490;28;20451;-71
2022/08/29 07:04:28;;;;;;;5.63;3.30;;;17.00;64.50;;;;;;5047496;28;20421;-71
2022/08/29 07:06:55;;;;;;;4.25;3.13;;;17.10;64.40;;;;;;5047665;28;20433;-71
2022/08/29 07:09:24;;;;;;;8.35;2.92;;;17.20;63.90;;;;;;5050482;28;20424;-71
2022/08/29 07:11:52;;;;;;;4.50;3.20;;;17.30;63.40;;;;;;5049003;28;20429;-72
2022/08/29 07:14:19;;;;;;;8.43;3.10;;;17.40;62.90;;;;;;5048062;28;20443;-72
2022/08/29 07:16:46;;;;;;;4.68;2.88;;;17.50;62.60;;;;;;5049089;28;20423;-72
2022/08/29 07:19:13;;;;;;;4.63;3.08;;;17.70;61.90;;;;;;5048757;28;20943;-72
2022/08/29 07:21:40;;;;;;;3.38;2.95;;;17.80;61.20;;;;;;5047763;28;20424;-73
2022/08/29 07:24:08;;;;;;;6.15;2.70;;;18.00;60.30;;;;;;5047518;28;20493;-73
2022/08/29 07:26:40;;;;;;;3.60;2.58;;;18.10;59.40;;;;;;5047540;28;20429;-72
2022/08/29 07:29:11;;;;;;;4.85;2.92;;;18.20;59.50;;;;;;5068886;28;20452;-72
2022/08/29 07:31:38;;;;;;;4.40;2.90;;;18.30;58.90;;;;;;5068644;28;20413;-72
2022/08/29 07:34:05;;;;;;;4.18;2.55;;;18.40;58.40;;;;;;5063415;28;20425;-73
2022/08/29 07:36:33;;;;;;;3.67;2.50;;;18.50;57.70;;;;;;5064920;28;20496;-73
2022/08/29 07:39:00;;;;;;;6.85;2.85;;;18.70;57.80;;;;;;5048227;28;20439;-71
2022/08/29 07:41:27;;;;;;;6.07;2.50;;;18.90;56.40;;;;;;5054632;28;20515;-73
2022/08/29 07:43:55;;;;;;;5.70;2.90;;;19.00;55.40;;;;;;5047766;28;20520;-73
2022/08/29 07:46:24;;;;;;;5.82;2.50;;;19.20;55.00;;;;;;5047550;28;20914;-73
2022/08/29 07:48:51;;;;;;;4.38;2.58;;;19.40;54.50;;;;;;5046773;28;20513;-73
2022/08/29 07:51:21;;;;;;;3.97;2.40;;;19.70;52.70;;;;;;5047990;28;20421;-71
2022/08/29 07:53:49;;;;;;;4.20;2.60;;;19.80;52.40;;;;;;5046986;28;20528;-71
2022/08/29 07:56:21;;;;;;;4.30;2.73;;;20.00;51.80;;;;;;5047774;28;20427;-72
2022/08/29 07:58:48;;;;;;;5.20;3.17;;;20.20;51.60;;;;;;5047658;28;20466;-72
2022/08/29 08:01:16;;;;;;;6.50;3.10;;;20.50;51.10;;;;;;5048328;28;20425;-72
2022/08/29 08:03:43;;;;;;;5.50;2.90;;;20.80;50.60;;;;;;5048207;28;20448;-72
2022/08/29 08:06:10;;;;;;;5.85;3.08;;;21.00;50.00;;;;;;5048605;28;20417;-72
2022/08/29 08:08:38;;;;;;;17.13;4.05;;;21.20;49.40;;;;;;5041034;28;20850;-74
2022/08/29 08:11:06;;;;;;;7.57;2.78;;;21.40;48.90;;;;;;5051145;28;20432;-72
2022/08/29 08:13:34;;;;;;;5.03;2.90;;;21.40;48.50;;;;;;5049413;28;21008;-72
2022/08/29 08:16:04;;;;;;;5.05;2.40;;;21.50;48.40;;;;;;5050118;28;20421;-71
2022/08/29 08:18:34;;;;;;;8.88;2.90;;;21.60;47.90;;;;;;5051179;28;20432;-73
2022/08/29 08:21:01;;;;;;;5.18;2.75;;;21.80;47.00;;;;;;5051665;28;20444;-71
2022/08/29 08:23:28;;;;;;;4.10;2.70;;;21.90;46.80;;;;;;5043667;28;20856;-73
2022/08/29 08:25:55;;;;;;;4.00;2.63;;;22.10;46.30;;;;;;5051478;28;20414;-71
2022/08/29 08:28:21;;;;;;;4.40;2.45;;;22.30;45.10;;;;;;5050601;28;21075;-73
2022/08/29 08:30:48;;;;;;;3.60;2.10;;;22.40;45.40;;;;;;5051774;28;20421;-73
2022/08/29 08:33:16;;;;;;;4.40;2.58;;;22.60;44.10;;;;;;5051173;28;21282;-73
2022/08/29 08:35:44;;;;;;;4.25;2.40;;;22.90;43.60;;;;;;5049409;28;20743;-74
2022/08/29 08:38:11;;;;;;;3.78;2.42;;;23.00;42.80;;;;;;5049567;28;20419;-73
2022/08/29 08:40:43;;;;;;;3.03;1.93;;;23.10;42.60;;;;;;5051211;28;20463;-72
2022/08/29 08:43:14;;;;;;;12.00;3.38;;;23.30;42.00;;;;;;5051048;28;20413;-72
2022/08/29 08:45:43;;;;;;;10.55;3.60;;;23.50;41.70;;;;;;5050464;28;20427;-72
2022/08/29 08:48:15;;;;;;;7.90;3.17;;;23.70;41.50;;;;;;5048797;28;20421;-74
2022/08/29 08:50:48;;;;;;;5.80;2.60;;;23.80;41.20;;;;;;5048410;28;20443;-74
2022/08/29 08:53:21;;;;;;;3.00;1.90;;;23.80;40.60;;;;;;5048046;28;20437;-74
2022/08/29 08:55:49;;;;;;;4.72;2.08;;;23.80;40.60;;;;;;5048732;28;20655;-74
2022/08/29 08:58:31;;;;;;;3.58;2.10;;;23.90;40.30;;;;;;5050271;28;21007;-72
2022/08/29 09:01:01;;;;;;;4.53;1.60;;;24.00;40.00;;;;;;5043846;28;20482;-74
2022/08/29 09:04:05;;;;;;;3.00;1.90;;;24.20;40.40;;;;;;5041934;28;20425;-74
2022/08/29 09:06:45;;;;;;;3.15;1.70;;;24.40;39.00;;;;;;5048694;28;20953;-73
2022/08/29 09:09:24;;;;;;;4.72;1.80;;;24.50;38.90;;;;;;5053665;22;20462;-71
2022/08/29 09:12:04;;;;;;;3.90;2.10;;;24.70;38.50;;;;;;4995393;28;21014;-70
2022/08/29 09:14:43;;;;;;;3.67;1.85;;;24.80;38.50;;;;;;4999075;28;20429;-70
2022/08/29 09:17:19;;;;;;;3.05;1.85;;;25.00;37.70;;;;;;5003924;28;20433;-70
2022/08/29 09:19:47;;;;;;;2.90;1.80;;;25.00;38.00;;;;;;5006204;28;20425;-71
2022/08/29 09:22:21;;;;;;;4.50;2.03;;;25.20;37.70;;;;;;5012966;28;20502;-70
2022/08/29 09:24:52;;;;;;;3.83;1.83;;;25.30;37.50;;;;;;5021243;28;20799;-71
2022/08/29 09:27:21;;;;;;;3.40;2.00;;;25.60;36.80;;;;;;4993506;28;20519;-70
2022/08/29 09:29:49;;;;;;;2.50;1.80;;;25.70;36.60;;;;;;4996378;28;20445;-71
2022/08/29 09:32:17;;;;;;;3.50;1.83;;;25.70;36.80;;;;;;5008624;28;20439;-70
2022/08/29 09:34:46;;;;;;;2.25;1.70;;;25.80;36.10;;;;;;5005490;28;20447;-70
2022/08/29 09:37:24;;;;;;;2.90;2.00;;;25.90;35.80;;;;;;5014004;28;20878;-69
2022/08/29 09:39:58;;;;;;;5.27;1.97;;;26.10;35.40;;;;;;5000084;28;20424;-71
2022/08/29 09:42:32;;;;;;;3.40;1.70;;;26.20;35.60;;;;;;5007088;28;20412;-70
2022/08/29 09:45:07;;;;;;;3.75;1.92;;;26.20;35.40;;;;;;5006313;28;20506;-71
2022/08/29 09:47:34;;;;;;;2.40;1.77;;;26.40;34.90;;;;;;5006849;28;20431;-71
2022/08/29 09:50:09;;;;;;;3.50;1.98;;;26.40;34.70;;;;;;5006590;28;20887;-70
2022/08/29 09:52:40;;;;;;;6.15;2.08;;;26.40;34.50;;;;;;5010696;28;20436;-70
2022/08/29 09:55:19;;;;;;;14.30;2.70;;;26.50;34.80;;;;;;5006260;28;20420;-71
2022/08/29 09:57:51;;;;;;;4.33;1.90;;;26.60;33.80;;;;;;4994827;28;20424;-70
2022/08/29 10:00:26;;;;;;;3.17;1.80;;;26.70;33.70;;;;;;4994907;28;20419;-71
2022/08/29 10:02:55;;;;;;;3.75;2.10;;;26.70;34.00;;;;;;5005782;28;20458;-71
2022/08/29 10:05:39;;;;;;;2.40;1.95;;;26.80;33.40;;;;;;5012739;28;20867;-69
2022/08/29 10:08:28;;;;;;;3.20;1.88;;;26.80;33.20;;;;;;5002591;28;20492;-70
2022/08/29 10:10:57;;;;;;;1.60;1.40;;;27.00;32.50;;;;;;5009039;28;20440;-71
2022/08/29 10:13:31;;;;;;;4.00;1.80;;;27.10;32.80;;;;;;5004084;28;20441;-71
2022/08/29 10:16:05;;;;;;;2.60;1.77;;;27.20;32.30;;;;;;4991795;28;20555;-71
2022/08/29 10:18:42;;;;;;;4.50;2.33;;;27.30;32.50;;;;;;5002424;28;20901;-71
2022/08/29 10:21:17;;;;;;;4.30;1.80;;;27.40;32.20;;;;;;5003189;28;20435;-70
2022/08/29 10:23:59;;;;;;;4.35;2.25;;;27.20;32.00;;;;;;5007257;28;20499;-71
2022/08/29 10:26:45;;;;;;;3.40;1.95;;;27.30;32.80;;;;;;4985174;28;20429;-70
2022/08/29 10:29:18;;;;;;;3.08;1.70;;;27.40;32.90;;;;;;5002451;28;20428;-71
2022/08/29 10:31:54;;;;;;;3.37;1.60;;;27.60;32.40;;;;;;5005265;28;20424;-70
2022/08/29 10:34:40;;;;;;;3.40;1.50;;;27.60;31.50;;;;;;5007125;28;20431;-70
2022/08/29 10:37:15;;;;;;;3.13;1.70;;;27.40;31.40;;;;;;5001631;28;20526;-71
2022/08/29 10:39:57;;;;;;;5.18;1.80;;;27.30;31.30;;;;;;5016365;28;20951;-71
2022/08/29 10:42:25;;;;;;;13.57;3.93;;;27.10;31.40;;;;;;5005071;28;20458;-71
2022/08/29 10:45:03;;;;;;;7.60;2.50;;;27.00;32.50;;;;;;5005357;28;20421;-71
2022/08/29 10:47:37;;;;;;;2.20;1.70;;;27.00;31.90;;;;;;5002337;28;20511;-70
2022/08/29 10:50:18;;;;;;;2.30;1.70;;;27.00;31.30;;;;;;5011023;28;20416;-70
2022/08/29 10:52:56;;;;;;;2.90;1.63;;;27.20;31.50;;;;;;5005048;28;20428;-69
2022/08/29 10:55:36;;;;;;;3.47;1.73;;;27.30;31.00;;;;;;4996204;28;20532;-69
2022/08/29 10:58:08;;;;;;;2.50;1.65;;;27.50;31.00;;;;;;5004673;28;20424;-71
2022/08/29 11:00:42;;;;;;;3.63;1.60;;;27.60;30.60;;;;;;5003515;28;20932;-70
2022/08/29 11:03:18;;;;;;;2.92;1.42;;;27.70;30.50;;;;;;5012329;28;20539;-70
2022/08/29 11:05:52;;;;;;;2.30;1.60;;;27.90;30.30;;;;;;5012711;28;20940;-69
2022/08/29 11:08:25;;;;;;;4.15;1.60;;;28.00;30.00;;;;;;5004523;28;20447;-70
2022/08/29 11:10:53;;;;;;;3.92;1.90;;;28.10;30.30;;;;;;5001948;28;20899;-70
2022/08/29 11:13:24;;;;;;;2.53;1.67;;;28.20;30.20;;;;;;5004633;28;20429;-70
2022/08/29 11:15:59;;;;;;;2.20;1.50;;;28.20;30.00;;;;;;5002580;28;20751;-69
2022/08/29 11:18:31;;;;;;;1.90;1.60;;;28.20;30.00;;;;;;5001117;28;20437;-70
2022/08/29 11:21:03;;;;;;;2.17;1.77;;;28.30;29.70;;;;;;5008189;28;20442;-70
2022/08/29 11:23:36;;;;;;;3.47;1.50;;;28.40;29.70;;;;;;5007576;28;20420;-69
2022/08/29 11:26:12;;;;;;;3.42;1.95;;;28.50;29.70;;;;;;5007946;28;20425;-70
2022/08/29 11:28:47;;;;;;;4.10;1.85;;;28.70;29.50;;;;;;5004771;28;20894;-70
2022/08/29 11:31:24;;;;;;;3.30;1.70;;;28.90;29.20;;;;;;4994634;28;20473;-70
2022/08/29 11:34:01;;;;;;;2.63;1.80;;;29.10;29.20;;;;;;5016884;28;20445;-70
2022/08/29 11:36:53;;;;;;;1.88;1.70;;;29.20;29.20;;;;;;4999852;28;20464;-70
2022/08/29 11:39:49;;;;;;;2.33;1.70;;;29.20;28.60;;;;;;5004754;28;20428;-70
2022/08/29 11:42:19;;;;;;;1.70;1.60;;;29.20;28.50;;;;;;5004069;28;20431;-70
2022/08/29 11:44:50;;;;;;;3.65;1.80;;;29.30;28.50;;;;;;4996877;28;20441;-69
2022/08/29 11:47:55;;;;;;;2.88;1.60;;;29.40;28.20;;;;;;5008424;28;20432;-70
2022/08/29 11:50:28;;;;;;;2.23;1.40;;;29.50;27.30;;;;;;4999775;28;20446;-70
2022/08/29 11:52:58;;;;;;;2.30;1.75;;;29.60;27.40;;;;;;5004790;28;20440;-70
2022/08/29 11:55:36;;;;;;;2.90;1.70;;;29.60;27.30;;;;;;5003545;28;20449;-70
2022/08/29 11:58:44;;;;;;;2.58;1.63;;;29.70;27.30;;;;;;5014680;28;20436;-70
2022/08/29 12:01:31;;;;;;;4.07;1.58;;;29.90;26.80;;;;;;5004940;28;20870;-70
2022/08/29 12:03:59;;;;;;;3.00;1.60;;;30.00;27.10;;;;;;5007484;28;20971;-70
2022/08/29 12:06:39;;;;;;;3.70;1.70;;;30.00;27.00;;;;;;5010452;28;20438;-72
2022/08/29 12:09:24;;;;;;;3.15;1.88;;;30.00;27.20;;;;;;5012401;28;20530;-72
2022/08/29 12:12:15;;;;;;;3.20;1.70;;;29.90;27.00;;;;;;5015054;28;20434;-71
2022/08/29 12:14:44;;;;;;;3.22;1.60;;;29.70;27.40;;;;;;5002474;28;20893;-71
2022/08/29 12:17:44;;;;;;;3.75;1.70;;;29.30;27.80;;;;;;5000204;28;20903;-70
2022/08/29 12:20:34;;;;;;;3.77;1.90;;;29.10;27.80;;;;;;5003583;28;20420;-69
2022/08/29 12:23:03;;;;;;;3.72;1.60;;;29.30;27.90;;;;;;5007160;28;20539;-71
2022/08/29 12:25:44;;;;;;;7.30;2.05;;;29.60;27.30;;;;;;4999325;28;20426;-70
2022/08/29 12:28:36;;;;;;;4.65;1.77;;;30.00;27.40;;;;;;4996755;28;20427;-69
2022/08/29 12:31:26;;;;;;;3.67;1.60;;;30.30;27.10;;;;;;5000850;28;21152;-71
2022/08/29 12:34:04;;;;;;;3.63;1.80;;;30.70;27.00;;;;;;5006335;28;20439;-71
2022/08/29 12:36:40;;;;;;;2.97;1.40;;;30.80;26.00;;;;;;5006599;28;20447;-70
2022/08/29 12:39:22;;;;;;;3.22;1.98;;;31.10;26.30;;;;;;5004694;28;20420;-72
2022/08/29 12:42:14;;;;;;;3.33;2.17;;;31.20;28.30;;;;;;5011561;28;20470;-72
2022/08/29 12:44:43;;;;;;;5.93;3.38;;;31.00;26.00;;;;;;4996368;28;20454;-73
2022/08/29 12:47:13;;;;;;;4.95;2.90;;;31.00;30.80;;;;;;4995991;28;20437;-72
2022/08/29 12:49:47;;;;;;;5.30;1.90;;;30.70;31.00;;;;;;4995778;28;20422;-71
2022/08/29 12:52:27;;;;;;;3.10;2.00;;;30.70;28.10;;;;;;4998952;28;20438;-71
2022/08/29 12:54:55;;;;;;;4.45;2.00;;;30.70;26.60;;;;;;4993864;28;20537;-70
2022/08/29 12:57:25;;;;;;;2.85;1.90;;;30.80;27.40;;;;;;5000823;28;20554;-70
2022/08/29 12:59:54;;;;;;;3.70;2.20;;;30.70;27.80;;;;;;4999636;28;20448;-71
2022/08/29 13:02:27;;;;;;;3.38;2.03;;;30.80;28.90;;;;;;4987175;28;20446;-71
2022/08/29 13:04:55;;;;;;;2.22;1.52;;;30.80;29.00;;;;;;4995653;28;20737;-71
2022/08/29 13:07:22;;;;;;;3.35;1.83;;;31.10;27.30;;;;;;4993730;28;20525;-70
2022/08/29 13:09:54;;;;;;;2.08;1.88;;;31.40;26.70;;;;;;4997774;28;20426;-71